Time;durP1;ratioP1;P1;durP2;ratioP2;P2;SDS_P1;SDS_P2;PMS_P1;PMS_P2;Temp;Humidity;BMP_temperature;BMP_pressure;BME280_temperature;BME280_humidity;BME280_pressure;Samples;Min_cycle;Max_cycle;Signal;HPM_P1;HPM_P2
2023/01/24 00:00:25;;;;;;;21.00;9.80;;;5.50;99.90;;;;;;4909722;28;20077;-85
2023/01/24 00:02:51;;;;;;;19.75;9.02;;;5.60;99.90;;;;;;4914816;28;20541;-85
2023/01/24 00:05:17;;;;;;;24.90;11.30;;;5.50;99.90;;;;;;4918709;28;20050;-85
2023/01/24 00:07:42;;;;;;;20.48;9.70;;;5.50;99.90;;;;;;4952404;28;20415;-86
2023/01/24 00:10:08;;;;;;;18.73;8.57;;;5.50;99.90;;;;;;4913685;28;20418;-85
2023/01/24 00:12:34;;;;;;;16.92;8.05;;;5.50;99.90;;;;;;4909594;28;20698;-86
2023/01/24 00:15:00;;;;;;;15.95;7.25;;;5.50;99.90;;;;;;4948679;28;20035;-85
2023/01/24 00:17:26;;;;;;;21.20;9.23;;;5.50;99.90;;;;;;4915665;28;20049;-86
2023/01/24 00:19:51;;;;;;;16.40;7.15;;;5.50;99.90;;;;;;4941252;28;20738;-85
2023/01/24 00:22:17;;;;;;;18.53;8.37;;;5.50;99.90;;;;;;4938217;28;20034;-84
2023/01/24 00:24:43;;;;;;;19.42;9.43;;;5.50;99.90;;;;;;4947250;28;20057;-86
2023/01/24 00:27:09;;;;;;;18.67;8.77;;;5.50;99.90;;;;;;4938119;28;20138;-86
2023/01/24 00:29:34;;;;;;;20.50;9.23;;;5.50;99.90;;;;;;4923380;28;20121;-86
2023/01/24 00:32:00;;;;;;;17.83;8.37;;;5.50;99.90;;;;;;4918283;28;20034;-86
2023/01/24 00:34:26;;;;;;;15.50;7.38;;;5.50;99.90;;;;;;4914504;28;20050;-86
2023/01/24 00:36:51;;;;;;;17.07;8.63;;;5.50;99.90;;;;;;4955870;28;20027;-85
2023/01/24 00:39:17;;;;;;;15.00;7.30;;;5.50;99.90;;;;;;4936543;28;20023;-86
2023/01/24 00:41:43;;;;;;;13.83;6.80;;;5.50;99.90;;;;;;4929630;28;20039;-86
2023/01/24 00:44:09;;;;;;;14.82;6.85;;;5.50;99.90;;;;;;4911192;28;20031;-85
2023/01/24 00:46:35;;;;;;;14.63;7.20;;;5.50;99.90;;;;;;4925264;28;20041;-86
2023/01/24 00:49:01;;;;;;;18.23;7.57;;;5.50;99.90;;;;;;4930995;28;20035;-86
2023/01/24 00:51:27;;;;;;;11.88;6.30;;;5.50;99.90;;;;;;4938684;28;20038;-86
2023/01/24 00:53:52;;;;;;;16.70;7.53;;;5.50;99.90;;;;;;4938534;28;20058;-85
2023/01/24 00:56:18;;;;;;;15.88;7.70;;;5.50;99.90;;;;;;4906847;28;20606;-86
2023/01/24 00:58:44;;;;;;;16.92;8.13;;;5.50;99.90;;;;;;4925138;28;20620;-85
2023/01/24 01:01:09;;;;;;;16.93;8.07;;;5.50;99.90;;;;;;4902681;28;20833;-86
2023/01/24 01:03:35;;;;;;;15.55;7.60;;;5.50;99.90;;;;;;4927754;28;20272;-85
2023/01/24 01:06:07;;;;;;;18.27;8.60;;;5.50;99.90;;;;;;4935537;28;20508;-85
2023/01/24 01:08:33;;;;;;;17.55;8.27;;;5.50;99.90;;;;;;4936324;28;20168;-85
2023/01/24 01:11:00;;;;;;;16.75;8.18;;;5.50;99.90;;;;;;4934424;28;20041;-85
2023/01/24 01:13:27;;;;;;;17.50;8.23;;;5.50;99.90;;;;;;4909026;28;20029;-86
2023/01/24 01:16:00;;;;;;;18.00;8.33;;;5.50;99.90;;;;;;4930333;28;20563;-86
2023/01/24 01:18:26;;;;;;;15.02;7.78;;;5.50;99.90;;;;;;4911195;28;20258;-86
2023/01/24 01:20:52;;;;;;;14.25;6.85;;;5.50;99.90;;;;;;4942423;28;20043;-85
2023/01/24 01:23:17;;;;;;;16.47;7.43;;;5.50;99.90;;;;;;4952590;28;20030;-85
2023/01/24 01:25:43;;;;;;;14.80;7.33;;;5.50;99.90;;;;;;4922768;28;20071;-86
2023/01/24 01:28:09;;;;;;;14.75;7.00;;;5.50;99.90;;;;;;4908151;28;20053;-86
2023/01/24 01:30:34;;;;;;;15.07;6.90;;;5.50;99.90;;;;;;4913911;28;20570;-85
2023/01/24 01:33:00;;;;;;;13.93;6.72;;;5.50;99.90;;;;;;4917218;28;20019;-87
2023/01/24 01:35:26;;;;;;;13.73;6.38;;;5.50;99.90;;;;;;4933348;28;20027;-86
2023/01/24 01:37:51;;;;;;;15.97;7.53;;;5.50;99.90;;;;;;4950230;28;20038;-85
2023/01/24 01:40:18;;;;;;;17.50;7.93;;;5.50;99.90;;;;;;4942097;28;20098;-84
2023/01/24 01:42:52;;;;;;;17.67;7.93;;;5.50;99.90;;;;;;4908155;28;20238;-86
2023/01/24 01:45:42;;;;;;;14.43;6.97;;;5.50;99.90;;;;;;4917357;28;20035;-86
2023/01/24 01:48:39;;;;;;;13.98;6.72;;;5.50;99.90;;;;;;4921978;28;20063;-86
2023/01/24 01:51:25;;;;;;;13.95;6.80;;;5.50;99.90;;;;;;4927369;28;20226;-85
2023/01/24 01:53:51;;;;;;;16.00;6.87;;;5.40;99.90;;;;;;4933120;28;20558;-85
2023/01/24 01:56:21;;;;;;;16.55;6.90;;;5.40;99.90;;;;;;4915516;28;20023;-85
2023/01/24 01:58:47;;;;;;;15.48;7.55;;;5.50;99.90;;;;;;4938548;28;20122;-86
2023/01/24 02:01:13;;;;;;;14.17;6.73;;;5.40;99.90;;;;;;4936944;28;20071;-89
2023/01/24 02:03:49;;;;;;;14.65;6.82;;;5.40;99.90;;;;;;4900680;28;20030;-88
2023/01/24 02:06:30;;;;;;;13.80;6.30;;;5.50;99.90;;;;;;4933601;28;20037;-88
2023/01/24 02:08:57;;;;;;;15.32;7.45;;;5.40;99.90;;;;;;4936551;28;20027;-88
2023/01/24 02:11:40;;;;;;;13.02;6.13;;;5.40;99.90;;;;;;4916550;28;20034;-88
2023/01/24 02:16:56;;;;;;;17.25;7.47;;;5.40;99.90;;;;;;4953119;28;20027;-88
2023/01/24 02:20:15;;;;;;;15.47;7.57;;;5.40;99.90;;;;;;4901892;28;20035;-87
2023/01/24 02:23:08;;;;;;;15.27;6.95;;;5.40;99.90;;;;;;4911747;28;20880;-87
2023/01/24 02:25:46;;;;;;;13.68;6.70;;;5.40;99.90;;;;;;4912844;28;20057;-88
2023/01/24 02:28:12;;;;;;;13.48;6.32;;;5.40;99.90;;;;;;4947467;28;20118;-88
2023/01/24 02:30:38;;;;;;;14.50;6.80;;;5.40;99.90;;;;;;4908667;28;20546;-88
2023/01/24 02:33:19;;;;;;;13.20;6.50;;;5.40;99.90;;;;;;4925959;28;20403;-88
2023/01/24 02:35:46;;;;;;;13.95;6.20;;;5.40;99.90;;;;;;4911206;28;20638;-88
2023/01/24 02:38:20;;;;;;;13.52;6.30;;;5.40;99.90;;;;;;4913749;28;20054;-88
2023/01/24 02:40:49;;;;;;;13.97;6.30;;;5.40;99.90;;;;;;4932591;28;20038;-88
2023/01/24 02:43:17;;;;;;;12.38;5.70;;;5.40;99.90;;;;;;4952610;28;20624;-88
2023/01/24 02:45:43;;;;;;;13.73;6.60;;;5.40;99.90;;;;;;4926763;28;20478;-87
2023/01/24 02:48:09;;;;;;;14.07;6.80;;;5.40;99.90;;;;;;4919157;28;20030;-88
2023/01/24 02:53:39;;;;;;;12.48;5.57;;;5.40;99.90;;;;;;4887184;29;20040;-88
2023/01/24 02:58:51;;;;;;;15.05;6.72;;;5.40;99.90;;;;;;4915808;28;20109;-86
2023/01/24 03:01:17;;;;;;;15.67;7.63;;;5.40;99.90;;;;;;4905874;28;20051;-86
2023/01/24 03:03:44;;;;;;;14.88;6.63;;;5.40;99.90;;;;;;4934013;28;20109;-88
2023/01/24 03:06:11;;;;;;;16.30;7.88;;;5.50;99.90;;;;;;4892119;28;20141;-88
2023/01/24 03:08:38;;;;;;;14.05;6.40;;;5.40;99.90;;;;;;4940031;28;20039;-88
2023/01/24 03:11:04;;;;;;;13.00;6.18;;;5.40;99.90;;;;;;4950163;28;20031;-88
2023/01/24 03:35:26;;;;;;;16.33;7.15;;;5.40;99.90;;;;;;4936256;28;20019;-86
2023/01/24 03:40:36;;;;;;;14.93;6.53;;;5.40;99.90;;;;;;4947583;28;20113;-88
2023/01/24 03:43:03;;;;;;;13.07;6.25;;;5.40;99.90;;;;;;4942096;28;20039;-88
2023/01/24 03:45:34;;;;;;;12.43;6.07;;;5.40;99.90;;;;;;4954412;28;20035;-87
2023/01/24 03:48:03;;;;;;;11.80;5.23;;;5.40;99.90;;;;;;4932810;28;20045;-87
2023/01/24 03:53:21;;;;;;;13.25;5.80;;;5.40;99.90;;;;;;4926731;28;20162;-88
2023/01/24 03:55:50;;;;;;;15.50;7.05;;;5.40;99.90;;;;;;4929400;28;20029;-87
2023/01/24 03:58:16;;;;;;;14.05;6.60;;;5.40;99.90;;;;;;4940876;28;20031;-87
2023/01/24 04:00:42;;;;;;;15.07;7.03;;;5.40;99.90;;;;;;4936609;28;20023;-88
2023/01/24 04:03:07;;;;;;;13.27;6.27;;;5.40;99.90;;;;;;4939640;28;20233;-88
2023/01/24 04:05:35;;;;;;;12.95;6.20;;;5.40;99.90;;;;;;4945389;28;20014;-88
2023/01/24 04:08:01;;;;;;;11.18;5.05;;;5.30;99.90;;;;;;4929275;28;20106;-88
2023/01/24 04:10:27;;;;;;;12.35;5.88;;;5.40;99.90;;;;;;4940301;28;20035;-89
2023/01/24 04:12:54;;;;;;;13.17;6.17;;;5.40;99.90;;;;;;4944054;28;20101;-88
2023/01/24 04:15:23;;;;;;;12.52;5.95;;;5.40;99.90;;;;;;4924861;28;20029;-88
2023/01/24 04:17:49;;;;;;;12.05;5.60;;;5.40;99.90;;;;;;4936611;28;20027;-88
2023/01/24 04:20:16;;;;;;;11.87;5.50;;;5.40;99.90;;;;;;4934251;28;20026;-88
2023/01/24 04:22:42;;;;;;;13.63;6.13;;;5.40;99.90;;;;;;4926546;28;20030;-89
2023/01/24 04:25:09;;;;;;;11.93;5.53;;;5.40;99.90;;;;;;4931355;28;20226;-87
2023/01/24 04:27:36;;;;;;;12.40;5.93;;;5.40;99.90;;;;;;4932055;28;20035;-88
2023/01/24 04:30:04;;;;;;;13.55;6.35;;;5.40;99.90;;;;;;4937703;28;20026;-88
2023/01/24 04:32:29;;;;;;;12.07;5.50;;;5.40;99.90;;;;;;4942664;28;20488;-87
2023/01/24 04:34:55;;;;;;;14.53;7.30;;;5.40;99.90;;;;;;4922002;28;20050;-88
2023/01/24 04:37:21;;;;;;;15.47;7.80;;;5.40;99.90;;;;;;4915320;28;20881;-88
2023/01/24 04:39:46;;;;;;;12.57;5.55;;;5.40;99.90;;;;;;4924713;28;21102;-87
2023/01/24 04:42:12;;;;;;;15.27;7.30;;;5.40;99.90;;;;;;4935786;28;20049;-87
2023/01/24 04:44:38;;;;;;;16.70;7.97;;;5.40;99.90;;;;;;4929512;28;20165;-88
2023/01/24 04:47:04;;;;;;;14.97;6.80;;;5.40;99.90;;;;;;4920675;28;20243;-88
2023/01/24 04:49:30;;;;;;;17.27;8.13;;;5.40;99.90;;;;;;4921394;28;20034;-88
2023/01/24 04:51:55;;;;;;;17.07;7.97;;;5.40;99.90;;;;;;4944079;28;20031;-88
2023/01/24 04:54:21;;;;;;;17.20;8.18;;;5.30;99.90;;;;;;4898168;28;20015;-88
2023/01/24 04:56:47;;;;;;;16.13;7.70;;;5.30;99.90;;;;;;4935078;28;20030;-87
2023/01/24 04:59:13;;;;;;;15.65;7.78;;;5.30;99.90;;;;;;4934313;28;20022;-88
2023/01/24 05:01:39;;;;;;;16.13;7.35;;;5.30;99.90;;;;;;4921982;28;20117;-87
2023/01/24 05:04:05;;;;;;;13.97;6.90;;;5.30;99.90;;;;;;4939444;28;20277;-87
2023/01/24 05:06:32;;;;;;;15.32;7.60;;;5.30;99.90;;;;;;4936729;28;20039;-88
2023/01/24 05:08:59;;;;;;;13.43;6.35;;;5.30;99.90;;;;;;4889574;28;20038;-87
2023/01/24 05:11:25;;;;;;;16.45;7.75;;;5.30;99.90;;;;;;4920613;28;20422;-87
2023/01/24 05:13:51;;;;;;;15.45;7.43;;;5.30;99.90;;;;;;4925599;28;20019;-88
2023/01/24 05:16:17;;;;;;;17.27;8.33;;;5.30;99.90;;;;;;4937072;28;20030;-88
2023/01/24 05:18:42;;;;;;;18.40;8.35;;;5.30;99.90;;;;;;4934062;28;20046;-87
2023/01/24 05:21:11;;;;;;;16.05;7.85;;;5.30;99.90;;;;;;4919794;28;20478;-88
2023/01/24 05:23:37;;;;;;;13.38;6.38;;;5.30;99.90;;;;;;4929135;28;20092;-88
2023/01/24 05:26:03;;;;;;;18.60;8.20;;;5.30;99.90;;;;;;4936468;28;20034;-88
2023/01/24 05:28:30;;;;;;;15.35;7.70;;;5.30;99.90;;;;;;4954185;28;20050;-89
2023/01/24 05:31:04;;;;;;;14.60;7.28;;;5.30;99.90;;;;;;4930105;28;20218;-88
2023/01/24 05:33:30;;;;;;;14.85;6.80;;;5.30;99.90;;;;;;4956806;28;20114;-88
2023/01/24 05:36:00;;;;;;;15.00;7.00;;;5.30;99.90;;;;;;4937151;28;20342;-88
2023/01/24 05:38:26;;;;;;;15.15;7.10;;;5.30;99.90;;;;;;4944587;28;20097;-88
2023/01/24 05:40:52;;;;;;;13.85;7.03;;;5.30;99.90;;;;;;4922329;28;20442;-88
2023/01/24 05:43:18;;;;;;;13.90;6.13;;;5.30;99.90;;;;;;4937855;28;20554;-88
2023/01/24 05:45:43;;;;;;;13.93;6.80;;;5.30;99.90;;;;;;4916091;28;20382;-88
2023/01/24 05:48:10;;;;;;;13.85;6.97;;;5.30;99.90;;;;;;4935760;28;20069;-88
2023/01/24 05:50:36;;;;;;;15.83;7.37;;;5.30;99.90;;;;;;4923230;28;20026;-88
2023/01/24 05:53:03;;;;;;;15.20;7.07;;;5.30;99.90;;;;;;4943247;28;21517;-88
2023/01/24 05:55:28;;;;;;;17.08;7.82;;;5.30;99.90;;;;;;4898693;28;20647;-88
2023/01/24 05:57:54;;;;;;;15.93;7.30;;;5.30;99.90;;;;;;4913979;28;20168;-88
2023/01/24 06:00:20;;;;;;;18.23;9.00;;;5.30;99.90;;;;;;4938658;28;20055;-88
2023/01/24 06:02:46;;;;;;;16.15;7.53;;;5.30;99.90;;;;;;4914554;28;20101;-87
2023/01/24 06:05:12;;;;;;;16.20;7.43;;;5.30;99.90;;;;;;4916827;28;20316;-88
2023/01/24 06:07:38;;;;;;;16.00;7.30;;;5.30;99.90;;;;;;4907944;28;20155;-88
2023/01/24 06:10:04;;;;;;;16.08;7.47;;;5.30;99.90;;;;;;4906007;28;20085;-87
2023/01/24 06:12:29;;;;;;;14.50;6.93;;;5.30;99.90;;;;;;4900052;28;20041;-88
2023/01/24 06:14:55;;;;;;;17.13;8.18;;;5.20;99.90;;;;;;4917205;28;20037;-87
2023/01/24 06:17:21;;;;;;;16.13;7.60;;;5.30;99.90;;;;;;4909125;28;20033;-87
2023/01/24 06:19:47;;;;;;;17.90;7.97;;;5.20;99.90;;;;;;4930687;28;20034;-87
2023/01/24 06:22:25;;;;;;;14.70;6.60;;;5.30;99.90;;;;;;4955933;28;20045;-87
2023/01/24 06:24:51;;;;;;;14.43;6.97;;;5.30;99.90;;;;;;4909920;28;20055;-87
2023/01/24 06:27:17;;;;;;;18.17;8.25;;;5.30;99.90;;;;;;4899399;28;20055;-88
2023/01/24 06:29:43;;;;;;;15.38;7.25;;;5.30;99.90;;;;;;4920374;28;20039;-88
2023/01/24 06:32:26;;;;;;;18.70;8.43;;;5.20;99.90;;;;;;4947884;28;20031;-88
2023/01/24 06:35:15;;;;;;;17.30;7.72;;;5.20;99.90;;;;;;4926562;28;20097;-88
2023/01/24 06:37:49;;;;;;;21.67;9.03;;;5.20;99.90;;;;;;4952315;28;20035;-87
2023/01/24 06:40:22;;;;;;;16.25;7.82;;;5.20;99.90;;;;;;4927406;28;20038;-88
2023/01/24 06:42:49;;;;;;;20.20;9.25;;;5.20;99.90;;;;;;4893437;28;20050;-86
2023/01/24 06:45:15;;;;;;;21.38;9.45;;;5.20;99.90;;;;;;4954587;28;20094;-88
2023/01/24 06:47:42;;;;;;;20.77;10.13;;;5.20;99.90;;;;;;4931627;28;20304;-86
2023/01/24 06:50:19;;;;;;;18.97;9.03;;;5.20;99.90;;;;;;4948254;28;20517;-88
2023/01/24 06:52:46;;;;;;;17.17;8.35;;;5.20;99.90;;;;;;4915285;28;20026;-87
2023/01/24 06:55:12;;;;;;;18.73;8.88;;;5.20;99.90;;;;;;4936695;28;20027;-87
2023/01/24 06:57:38;;;;;;;19.02;8.50;;;5.20;99.90;;;;;;4916073;28;20018;-87
2023/01/24 07:00:05;;;;;;;15.70;7.47;;;5.10;99.90;;;;;;4921289;28;20031;-88
2023/01/24 07:02:31;;;;;;;18.52;8.55;;;5.10;99.90;;;;;;4933327;28;20031;-88
2023/01/24 07:04:57;;;;;;;17.83;7.93;;;5.10;99.90;;;;;;4923105;28;20406;-88
2023/01/24 07:07:22;;;;;;;20.00;9.37;;;5.10;99.90;;;;;;4950572;28;20292;-88
2023/01/24 07:09:48;;;;;;;16.35;7.72;;;5.10;99.90;;;;;;4931884;28;21027;-88
2023/01/24 07:12:14;;;;;;;15.70;7.50;;;5.10;99.90;;;;;;4917258;28;20716;-88
2023/01/24 07:14:40;;;;;;;19.20;9.02;;;5.20;99.90;;;;;;4907549;28;20030;-87
2023/01/24 07:17:06;;;;;;;17.90;8.07;;;5.20;99.90;;;;;;4914895;28;20743;-88
2023/01/24 07:19:32;;;;;;;21.50;9.38;;;5.10;99.90;;;;;;4936995;28;20108;-87
2023/01/24 07:21:58;;;;;;;22.23;9.52;;;5.10;99.90;;;;;;4923226;28;20031;-88
2023/01/24 07:24:29;;;;;;;21.83;10.00;;;5.10;99.90;;;;;;4921689;28;20526;-88
2023/01/24 07:26:56;;;;;;;20.70;9.63;;;5.10;99.90;;;;;;4913510;28;20681;-88
2023/01/24 07:29:22;;;;;;;24.05;11.00;;;5.10;99.90;;;;;;4894259;28;20553;-88
2023/01/24 07:31:48;;;;;;;22.92;9.85;;;5.10;99.90;;;;;;4929233;28;20019;-87
2023/01/24 07:34:17;;;;;;;22.73;10.60;;;5.10;99.90;;;;;;4937667;28;20030;-89
2023/01/24 07:36:45;;;;;;;22.80;9.80;;;5.10;99.90;;;;;;4944882;28;20483;-87
2023/01/24 07:39:11;;;;;;;23.67;10.05;;;5.10;99.90;;;;;;4948707;28;20472;-87
2023/01/24 07:41:38;;;;;;;22.50;10.18;;;5.00;99.90;;;;;;4921584;28;20043;-88
2023/01/24 07:44:05;;;;;;;29.50;12.95;;;5.10;99.90;;;;;;4883146;28;20086;-87
2023/01/24 07:46:35;;;;;;;26.63;12.15;;;5.00;99.90;;;;;;4931615;28;20027;-87
2023/01/24 07:49:00;;;;;;;22.40;10.60;;;5.00;99.90;;;;;;4930804;28;20065;-88
2023/01/24 07:51:26;;;;;;;16.42;7.47;;;5.00;99.90;;;;;;4912647;28;20027;-87
2023/01/24 07:53:52;;;;;;;18.58;8.35;;;5.00;99.90;;;;;;4933285;28;20030;-88
2023/01/24 07:56:18;;;;;;;19.73;9.10;;;5.00;99.90;;;;;;4928696;28;20023;-88
2023/01/24 07:58:44;;;;;;;21.27;9.73;;;5.00;99.90;;;;;;4897377;28;20603;-88
2023/01/24 08:01:14;;;;;;;19.73;9.20;;;5.00;99.90;;;;;;4925754;28;20029;-88
2023/01/24 08:03:40;;;;;;;20.58;9.50;;;5.00;99.90;;;;;;4944093;28;21551;-87
2023/01/24 08:06:06;;;;;;;25.67;11.38;;;5.10;99.90;;;;;;4949318;28;20035;-87
2023/01/24 08:08:32;;;;;;;23.80;10.97;;;5.00;99.90;;;;;;4944765;28;20070;-88
2023/01/24 08:10:57;;;;;;;23.35;10.50;;;5.10;99.90;;;;;;4936786;28;20478;-87
2023/01/24 08:13:23;;;;;;;21.13;9.67;;;5.00;99.90;;;;;;4922489;28;20499;-89
2023/01/24 08:15:49;;;;;;;22.02;10.45;;;5.10;99.90;;;;;;4908978;28;20234;-87
2023/01/24 08:18:15;;;;;;;25.67;11.20;;;5.10;99.90;;;;;;4939470;28;20031;-87
2023/01/24 08:20:40;;;;;;;26.55;12.23;;;5.10;99.90;;;;;;4925263;28;20022;-88
2023/01/24 08:23:06;;;;;;;25.63;11.57;;;5.10;99.90;;;;;;4916653;28;20037;-87
2023/01/24 08:25:33;;;;;;;22.13;10.48;;;5.10;99.90;;;;;;4939491;28;20031;-88
2023/01/24 08:27:59;;;;;;;22.00;9.57;;;5.10;99.90;;;;;;4934831;28;20500;-87
2023/01/24 08:30:25;;;;;;;21.63;9.20;;;5.10;99.90;;;;;;4881168;28;20058;-88
2023/01/24 08:33:04;;;;;;;21.38;9.25;;;5.10;99.90;;;;;;4940229;28;20542;-87
2023/01/24 08:35:31;;;;;;;26.73;11.97;;;5.10;99.90;;;;;;4952636;28;20024;-87
2023/01/24 08:37:57;;;;;;;25.48;11.13;;;5.10;99.90;;;;;;4920288;28;20027;-87
2023/01/24 08:40:23;;;;;;;29.90;12.52;;;5.10;99.90;;;;;;4918268;28;20046;-86
2023/01/24 08:42:49;;;;;;;27.75;12.38;;;5.10;99.90;;;;;;4949245;28;20292;-87
2023/01/24 08:45:15;;;;;;;31.13;13.23;;;5.10;99.90;;;;;;4908566;28;20129;-88
2023/01/24 08:47:40;;;;;;;27.45;12.40;;;5.10;99.90;;;;;;4912572;28;20070;-88
2023/01/24 08:50:07;;;;;;;27.50;12.27;;;5.10;99.90;;;;;;4938429;28;20200;-88
2023/01/24 08:52:33;;;;;;;24.20;10.43;;;5.10;99.90;;;;;;4956734;28;20027;-89
2023/01/24 08:54:58;;;;;;;29.00;13.00;;;5.10;99.90;;;;;;4915424;28;20097;-88
2023/01/24 08:57:24;;;;;;;26.40;11.73;;;5.20;99.90;;;;;;4921052;28;20023;-88
2023/01/24 08:59:49;;;;;;;24.20;11.10;;;5.10;99.90;;;;;;4918911;28;20909;-89
2023/01/24 09:02:16;;;;;;;19.92;9.13;;;5.20;99.90;;;;;;4912790;28;20435;-87
2023/01/24 09:04:42;;;;;;;23.17;10.68;;;5.20;99.90;;;;;;4936995;28;20064;-88
2023/01/24 09:07:11;;;;;;;24.10;10.93;;;5.20;99.90;;;;;;4939758;28;20515;-88
2023/01/24 09:09:37;;;;;;;25.13;10.87;;;5.20;99.90;;;;;;4922259;28;20459;-86
2023/01/24 09:12:03;;;;;;;21.95;10.18;;;5.20;99.90;;;;;;4931677;28;20031;-88
2023/01/24 09:14:29;;;;;;;17.30;8.15;;;5.20;99.90;;;;;;4940282;28;20413;-87
2023/01/24 09:16:54;;;;;;;24.47;11.43;;;5.20;99.90;;;;;;4866416;28;20299;-87
2023/01/24 09:19:20;;;;;;;27.00;12.23;;;5.20;99.90;;;;;;4936574;28;20295;-88
2023/01/24 09:21:51;;;;;;;24.20;11.23;;;5.30;99.90;;;;;;4923796;28;20537;-87
2023/01/24 09:24:18;;;;;;;21.42;9.57;;;5.30;99.90;;;;;;4930001;28;20577;-88
2023/01/24 09:26:44;;;;;;;18.98;8.95;;;5.30;99.90;;;;;;4948745;28;20571;-87
2023/01/24 09:29:10;;;;;;;18.20;8.38;;;5.30;99.90;;;;;;4934620;28;20387;-88
2023/01/24 09:31:36;;;;;;;16.93;8.03;;;5.30;99.90;;;;;;4897175;28;20027;-87
2023/01/24 09:34:02;;;;;;;16.08;7.80;;;5.30;99.90;;;;;;4932113;28;20246;-85
2023/01/24 09:36:29;;;;;;;20.92;10.15;;;5.30;99.90;;;;;;4954705;28;20030;-88
2023/01/24 09:38:56;;;;;;;21.85;10.07;;;5.30;99.90;;;;;;4924307;28;20038;-88
2023/01/24 09:41:54;;;;;;;21.58;9.60;;;5.30;99.90;;;;;;4933048;28;20134;-87
2023/01/24 09:44:40;;;;;;;23.77;10.67;;;5.30;99.90;;;;;;4929047;28;20419;-88
2023/01/24 09:47:27;;;;;;;23.00;10.02;;;5.30;99.90;;;;;;4925202;28;20679;-88
2023/01/24 09:50:01;;;;;;;20.42;9.65;;;5.30;99.90;;;;;;4937827;28;20026;-88
2023/01/24 09:52:38;;;;;;;21.67;9.75;;;5.30;99.90;;;;;;4950353;28;20026;-88
2023/01/24 09:55:16;;;;;;;24.02;10.68;;;5.30;99.90;;;;;;4924977;28;20202;-87
2023/01/24 09:58:18;;;;;;;28.23;12.80;;;5.40;99.90;;;;;;4924735;28;20402;-87
2023/01/24 10:00:45;;;;;;;28.50;13.25;;;5.40;99.90;;;;;;4922142;28;20045;-88
2023/01/24 10:03:21;;;;;;;24.25;11.85;;;5.40;99.90;;;;;;4924044;28;20030;-87
2023/01/24 10:05:51;;;;;;;22.13;10.45;;;5.40;99.90;;;;;;4916730;28;20237;-88
2023/01/24 10:08:24;;;;;;;21.98;10.23;;;5.40;99.90;;;;;;4926182;28;20336;-87
2023/01/24 10:10:59;;;;;;;21.87;10.27;;;5.40;99.90;;;;;;4911731;28;20033;-88
2023/01/24 10:13:50;;;;;;;19.52;9.23;;;5.40;99.90;;;;;;4912795;28;20352;-87
2023/01/24 10:16:41;;;;;;;19.13;9.27;;;5.40;99.90;;;;;;4934654;28;20505;-87
2023/01/24 10:19:42;;;;;;;23.23;10.70;;;5.40;99.90;;;;;;4904146;28;20312;-88
2023/01/24 10:22:53;;;;;;;22.35;10.00;;;5.40;99.90;;;;;;4950332;28;20035;-87
2023/01/24 10:25:26;;;;;;;18.83;8.17;;;5.40;99.90;;;;;;4900810;28;20050;-88
2023/01/24 10:27:55;;;;;;;17.77;9.10;;;5.40;99.90;;;;;;4945056;28;20037;-88
2023/01/24 10:30:36;;;;;;;20.38;9.68;;;5.50;99.90;;;;;;4951146;28;20543;-88
2023/01/24 10:33:09;;;;;;;17.05;8.57;;;5.50;99.90;;;;;;4932949;28;20688;-88
2023/01/24 10:35:54;;;;;;;21.10;9.98;;;5.50;99.90;;;;;;4892385;28;20027;-88
2023/01/24 10:38:20;;;;;;;24.20;11.33;;;5.50;99.90;;;;;;4913135;28;20030;-86
2023/01/24 10:41:04;;;;;;;19.77;9.85;;;5.60;99.90;;;;;;4915684;28;20041;-88
2023/01/24 10:43:32;;;;;;;20.65;9.75;;;5.60;99.90;;;;;;4931371;28;20495;-88
2023/01/24 10:46:23;;;;;;;15.07;7.33;;;5.60;99.90;;;;;;4945683;28;20031;-88
2023/01/24 10:48:55;;;;;;;18.50;8.90;;;5.60;99.90;;;;;;4924693;28;20138;-88
2023/01/24 10:51:23;;;;;;;20.38;9.68;;;5.60;99.90;;;;;;4917134;28;20452;-87
2023/01/24 10:53:50;;;;;;;14.35;7.25;;;5.60;99.90;;;;;;4951239;28;20073;-86
2023/01/24 10:56:19;;;;;;;18.98;9.48;;;5.60;99.90;;;;;;4909313;28;20756;-88
2023/01/24 10:59:09;;;;;;;17.33;7.87;;;5.60;99.90;;;;;;4922248;28;20033;-87
2023/01/24 11:01:43;;;;;;;18.88;8.70;;;5.60;99.90;;;;;;4933674;28;20034;-87
2023/01/24 11:04:18;;;;;;;30.33;11.15;;;5.70;99.90;;;;;;4929381;28;20682;-88
2023/01/24 11:06:47;;;;;;;19.90;9.43;;;5.70;99.90;;;;;;4906285;28;20403;-87
2023/01/24 11:09:15;;;;;;;22.08;10.52;;;5.70;99.90;;;;;;4944495;28;20709;-88
2023/01/24 11:11:46;;;;;;;21.37;9.93;;;5.60;99.90;;;;;;4908295;28;20514;-88
2023/01/24 11:14:16;;;;;;;25.20;10.90;;;5.70;99.90;;;;;;4940797;28;20124;-88
2023/01/24 11:16:45;;;;;;;21.55;10.38;;;5.70;99.90;;;;;;4919189;28;20581;-88
2023/01/24 11:19:24;;;;;;;20.55;9.07;;;5.70;99.90;;;;;;4934053;28;20570;-88
2023/01/24 11:21:52;;;;;;;18.67;8.65;;;5.70;99.90;;;;;;4905885;28;20031;-86
2023/01/24 11:24:20;;;;;;;18.30;8.70;;;5.70;99.90;;;;;;4931784;28;20115;-87
2023/01/24 11:27:16;;;;;;;16.45;8.38;;;5.70;99.90;;;;;;4921666;28;20198;-87
2023/01/24 11:29:42;;;;;;;20.77;10.30;;;5.70;99.90;;;;;;4926127;28;20665;-86
2023/01/24 11:32:31;;;;;;;18.75;8.98;;;5.70;99.90;;;;;;4938898;28;20595;-87
2023/01/24 11:35:07;;;;;;;21.55;10.90;;;5.70;99.90;;;;;;4950066;28;20918;-87
2023/01/24 11:37:45;;;;;;;20.77;10.40;;;5.80;99.90;;;;;;4905113;28;20118;-87
2023/01/24 11:40:19;;;;;;;19.00;9.77;;;5.80;99.90;;;;;;4930920;28;20026;-87
2023/01/24 11:42:47;;;;;;;17.20;8.18;;;5.80;99.90;;;;;;4947464;28;20043;-87
2023/01/24 11:45:25;;;;;;;20.63;10.43;;;5.80;99.90;;;;;;4924371;28;20702;-88
2023/01/24 11:48:05;;;;;;;21.70;10.60;;;5.80;99.90;;;;;;4937900;28;20112;-87
2023/01/24 11:50:36;;;;;;;17.60;8.70;;;5.80;99.90;;;;;;4936526;28;20530;-88
2023/01/24 11:53:21;;;;;;;15.95;8.13;;;5.80;99.90;;;;;;4912254;28;20307;-87
2023/01/24 11:55:51;;;;;;;16.67;8.85;;;5.90;99.90;;;;;;4914031;28;20049;-88
2023/01/24 11:58:52;;;;;;;15.68;8.18;;;5.90;99.90;;;;;;4935924;28;20380;-87
2023/01/24 12:01:34;;;;;;;17.48;8.73;;;5.90;99.90;;;;;;4899309;28;21199;-87
2023/01/24 12:04:32;;;;;;;17.60;8.53;;;5.90;99.90;;;;;;4919733;28;20073;-88
2023/01/24 12:07:18;;;;;;;17.50;8.50;;;5.90;99.90;;;;;;4893401;28;20086;-87
2023/01/24 12:10:15;;;;;;;17.52;8.35;;;5.90;99.90;;;;;;4920511;28;20150;-87
2023/01/24 12:12:46;;;;;;;14.60;6.90;;;5.90;99.90;;;;;;4923520;28;20146;-87
2023/01/24 12:15:14;;;;;;;12.77;6.50;;;5.90;99.90;;;;;;4930833;28;20511;-87
2023/01/24 12:18:07;;;;;;;16.67;8.47;;;5.90;99.90;;;;;;4911590;28;20059;-87
2023/01/24 12:21:08;;;;;;;18.98;9.88;;;5.90;99.90;;;;;;4939642;28;20680;-88
2023/01/24 12:23:53;;;;;;;20.15;10.15;;;5.90;99.90;;;;;;4911313;28;20045;-87
2023/01/24 12:26:24;;;;;;;16.83;8.10;;;5.90;99.90;;;;;;4937683;28;20363;-88
2023/01/24 12:29:12;;;;;;;15.32;7.13;;;5.90;99.90;;;;;;4920764;28;20105;-87
2023/01/24 12:31:49;;;;;;;18.17;9.07;;;5.90;99.90;;;;;;4938005;28;20609;-87
2023/01/24 12:34:27;;;;;;;17.92;8.80;;;6.00;99.90;;;;;;4926986;28;20644;-87
2023/01/24 12:37:11;;;;;;;16.75;8.43;;;6.00;99.90;;;;;;4916892;28;20082;-88
2023/01/24 12:40:26;;;;;;;16.92;8.00;;;6.00;99.90;;;;;;4899605;28;20037;-88
2023/01/24 12:43:15;;;;;;;15.77;7.57;;;6.00;99.90;;;;;;4914086;28;20070;-87
2023/01/24 12:45:47;;;;;;;19.90;9.03;;;6.00;99.90;;;;;;4939094;28;20701;-87
2023/01/24 12:48:38;;;;;;;17.85;8.73;;;6.00;99.90;;;;;;4912156;28;20027;-88
2023/01/24 12:51:26;;;;;;;20.27;9.40;;;6.00;99.90;;;;;;4936746;28;20222;-88
2023/01/24 12:54:12;;;;;;;18.40;9.30;;;6.00;99.90;;;;;;4893519;28;20395;-86
2023/01/24 12:56:47;;;;;;;18.55;8.82;;;6.00;99.90;;;;;;4922114;28;20101;-87
2023/01/24 12:59:14;;;;;;;15.10;7.70;;;6.00;99.90;;;;;;4952532;28;20022;-88
2023/01/24 13:02:16;;;;;;;16.83;9.02;;;6.00;99.90;;;;;;4952418;28;20595;-87
2023/01/24 13:04:48;;;;;;;16.75;8.13;;;6.00;99.90;;;;;;4912248;28;20039;-88
2023/01/24 13:07:53;;;;;;;17.77;8.57;;;6.00;99.90;;;;;;4936587;28;20075;-87
2023/01/24 13:10:25;;;;;;;17.52;8.88;;;6.00;99.90;;;;;;4901832;28;20036;-87
2023/01/24 13:12:52;;;;;;;17.47;8.37;;;6.10;99.90;;;;;;4951716;28;20067;-88
2023/01/24 13:15:32;;;;;;;16.48;8.38;;;6.10;99.90;;;;;;4951145;28;20328;-86
2023/01/24 13:18:21;;;;;;;18.23;9.10;;;6.00;99.90;;;;;;4933909;28;20139;-88
2023/01/24 13:21:08;;;;;;;17.67;8.90;;;6.10;99.90;;;;;;4941890;28;20037;-88
2023/01/24 13:23:46;;;;;;;16.80;8.68;;;6.10;99.90;;;;;;4938043;28;20090;-88
2023/01/24 13:26:40;;;;;;;14.60;7.17;;;6.10;99.90;;;;;;4906334;28;20066;-87
2023/01/24 13:29:35;;;;;;;18.00;8.50;;;6.10;99.90;;;;;;4948254;28;20039;-88
2023/01/24 13:32:16;;;;;;;15.70;7.65;;;6.10;99.90;;;;;;4935809;28;20570;-88
2023/01/24 13:34:54;;;;;;;16.80;8.70;;;6.10;99.90;;;;;;4931209;28;20396;-88
2023/01/24 13:37:32;;;;;;;19.67;9.73;;;6.20;99.90;;;;;;4922691;28;20470;-87
2023/01/24 13:40:23;;;;;;;19.40;9.13;;;6.10;99.90;;;;;;4918490;28;20682;-87
2023/01/24 13:42:49;;;;;;;19.80;9.40;;;6.20;99.90;;;;;;4950332;28;20089;-88